Hlavní strana
METAR-TAF:

METAR-TAF

Letiště :

Vinnycja, Ukrajina

zeměpisná šířka: 49-14-23N, zeměpisná délka: 028-36-50E, výška: 974 m

Aktuální stav počasí

Zpráva byla vytvořena před 7 hodinami a 28 minutami, v 17:00 UTC
Severoseverozápadní vítr 10 kt
Teplota 7°C
Vlhkost vzduchu 70%
Tlak 1017 hPa
Viditelnost 10 km a více

METAR: UKWW 081700Z 33005MPS 9999 NSC 07/02 Q1017 NOSIG

Čas: 03:28 (00:28 UTC)

Předpověď počasí

Zpráva byla vytvořena před 10 hodinami a 18 minutami, v 14:10 UTC
Předpověď platná od 08 v 15 UTC do 08 v 24 UTC
Severoseverozápadní vítr 14 kt s nárazy do 23 kt
Viditelnost 10 km a více
Oblačno až skoro zataženo ve výšce 3000 ft
Dočasný
od 08 v 15 UTC do 08 v 18 UTC
Severozápadní vítr 23 kt s nárazy do 33 kt
Viditelnost: 2100 m
Polojasno ve výšce 500 ft
Oblačno až skoro zataženo ve výšce 1500 ft, Cumulonimbus.
slabé dešťové přeháňky

TAF: UKWW 081410Z 0815/0824 33007G12MPS 9999 BKN030 TEMPO 0815/0818 32012G17MPS 2100 -SHRA SCT005 BKN015CB

Stav a předpovědi počasí z více než 4 000 letišť (zprávy METAR a TAF).

Červené a žluté tečky na mapě představují dostupné meteorologické stanice.

Když kurzor umístíte na tečku, zobrazí se název stanice.

Pak kliknutím zobrazíte stav a předpověď počasí.

Chcete-li změnit mapu, kliknutím na zelené tlačítko se znaménkem +mapu přiblížíte, kliknutím na zelené tlačítko se znaménkem – mapu oddálíte a kliknutím na zelené šipky přejdete na sousední mapy.


METAR-TAF: